Time;durP1;ratioP1;P1;durP2;ratioP2;P2;SDS_P1;SDS_P2;PMS_P1;PMS_P2;Temp;Humidity;BMP_temperature;BMP_pressure;BME280_temperature;BME280_humidity;BME280_pressure;Samples;Min_cycle;Max_cycle;Signal;HPM_P1;HPM_P2
2022/08/24 00:01:49;;;;;;;;;3.67;3.00;;;;;23.74;100.00;101358.03;5025688;28;45544;-72
2022/08/24 00:04:15;;;;;;;;;5.33;5.33;;;;;23.71;100.00;101347.38;5030544;28;58215;-72
2022/08/24 00:06:40;;;;;;;;;4.33;4.33;;;;;23.71;100.00;101345.56;5030839;28;45634;-75
2022/08/24 00:09:06;;;;;;;;;5.00;4.33;;;;;23.67;100.00;101343.00;5031308;28;67451;-73
2022/08/24 00:11:31;;;;;;;;;3.00;3.00;;;;;23.71;100.00;101358.16;5009145;28;58922;-74
2022/08/24 00:13:56;;;;;;;;;4.00;4.00;;;;;23.70;100.00;101351.88;5034323;28;57541;-73
2022/08/24 00:16:22;;;;;;;;;5.00;4.00;;;;;23.64;100.00;101340.41;5025366;28;47573;-72
2022/08/24 00:18:48;;;;;;;;;6.33;4.00;;;;;23.68;100.00;101352.84;5029775;28;45489;-72
2022/08/24 00:21:13;;;;;;;;;6.00;3.00;;;;;23.67;100.00;101345.72;5027189;28;45500;-73
2022/08/24 00:23:39;;;;;;;;;6.00;5.00;;;;;23.70;100.00;101356.38;5028723;28;45466;-72
2022/08/24 00:26:05;;;;;;;;;5.67;4.00;;;;;23.64;100.00;101343.09;5029719;28;46530;-72
2022/08/24 00:28:30;;;;;;;;;5.00;5.00;;;;;23.63;100.00;101350.31;5032931;28;45548;-74
2022/08/24 00:30:56;;;;;;;;;4.67;3.67;;;;;23.66;100.00;101357.44;5029353;28;45479;-72
2022/08/24 00:33:21;;;;;;;;;3.00;3.00;;;;;23.63;100.00;101346.75;5028332;28;61815;-73
2022/08/24 00:35:46;;;;;;;;;3.67;3.67;;;;;23.57;100.00;101349.63;5020298;28;68214;-72
2022/08/24 00:38:12;;;;;;;;;6.00;5.00;;;;;23.60;100.00;101360.31;5030082;28;45533;-73
2022/08/24 00:40:41;;;;;;;;;4.00;4.00;;;;;23.55;100.00;101354.19;5031228;28;58841;-75
2022/08/24 00:43:08;;;;;;;;;5.00;5.00;;;;;23.52;100.00;101342.56;5028854;28;45417;-72
2022/08/24 00:45:45;;;;;;;;;4.33;4.33;;;;;23.52;100.00;101345.25;5033378;28;46457;-74
2022/08/24 00:48:15;;;;;;;;;5.00;5.00;;;;;23.55;100.00;101349.69;5032512;28;45397;-73
2022/08/24 00:50:59;;;;;;;;;5.33;5.00;;;;;23.51;100.00;101345.31;5027389;28;45469;-73
2022/08/24 00:53:35;;;;;;;;;5.00;5.00;;;;;23.51;100.00;101350.72;5013258;28;45516;-73
2022/08/24 00:56:04;;;;;;;;;4.33;4.33;;;;;23.49;100.00;101345.38;5023660;28;46002;-73
2022/08/24 00:58:54;;;;;;;;;6.00;6.00;;;;;23.46;100.00;101348.19;5007321;28;45447;-72
2022/08/24 01:01:19;;;;;;;;;5.67;5.00;;;;;23.45;100.00;101356.31;5008389;28;45379;-73
2022/08/24 01:03:45;;;;;;;;;4.67;4.67;;;;;23.40;100.00;101347.50;5012400;28;45383;-75
2022/08/24 01:06:11;;;;;;;;;4.67;4.67;;;;;23.40;100.00;101353.78;5031235;28;46544;-73
2022/08/24 01:08:36;;;;;;;;;4.33;4.33;;;;;23.36;100.00;101351.22;5016402;28;45505;-72
2022/08/24 01:11:06;;;;;;;;;5.00;4.00;;;;;23.36;100.00;101352.13;5027225;28;45284;-73
2022/08/24 01:13:33;;;;;;;;;6.00;4.33;;;;;23.31;100.00;101350.50;5030162;28;45592;-72
2022/08/24 01:16:03;;;;;;;;;5.33;5.33;;;;;23.27;100.00;101344.31;5008042;28;47175;-74
2022/08/24 01:21:22;;;;;;;;;5.00;5.00;;;;;23.21;100.00;101340.03;5033515;28;45461;-75
2022/08/24 01:23:53;;;;;;;;;5.33;5.33;;;;;23.22;100.00;101354.38;5030130;28;45530;-72
2022/08/24 01:26:31;;;;;;;;;4.67;4.67;;;;;23.08;100.00;101330.59;5012500;28;45220;-72
2022/08/24 01:28:59;;;;;;;;;8.00;4.00;;;;;23.18;100.00;101345.53;5013867;28;45305;-71
2022/08/24 01:31:25;;;;;;;;;5.00;5.00;;;;;23.16;100.00;101346.50;5015621;28;45284;-72
2022/08/24 01:33:52;;;;;;;;;5.00;5.00;;;;;23.13;100.00;101344.81;5028305;28;45414;-72
2022/08/24 01:36:29;;;;;;;;;4.00;4.00;;;;;23.10;100.00;101347.59;5022636;28;46574;-72
2022/08/24 01:39:00;;;;;;;;;6.67;4.67;;;;;23.05;100.00;101352.25;5011293;28;45537;-73
2022/08/24 01:41:25;;;;;;;;;5.00;5.00;;;;;23.07;100.00;101353.09;5029334;28;45283;-73
2022/08/24 01:43:51;;;;;;;;;8.00;5.00;;;;;23.06;100.00;101354.00;5024392;28;45398;-72
2022/08/24 01:46:16;;;;;;;;;5.33;5.33;;;;;23.05;100.00;101348.66;5032120;28;46742;-73
2022/08/24 01:48:42;;;;;;;;;3.67;3.67;;;;;23.00;100.00;101349.69;5028221;28;63689;-72
2022/08/24 01:51:07;;;;;;;;;5.00;5.00;;;;;22.95;100.00;101346.25;5024608;28;62422;-72
2022/08/24 01:53:32;;;;;;;;;4.00;4.00;;;;;22.94;100.00;101346.31;5033666;28;60419;-75
2022/08/24 01:55:58;;;;;;;;;4.00;4.00;;;;;22.95;100.00;101359.72;5029491;28;48262;-72
2022/08/24 01:58:23;;;;;;;;;6.67;6.00;;;;;22.94;100.00;101359.78;5030764;28;45393;-72
2022/08/24 02:00:49;;;;;;;;;4.00;4.00;;;;;22.92;100.00;101358.97;5023996;28;45384;-72
2022/08/24 02:03:14;;;;;;;;;4.00;4.00;;;;;22.86;100.00;101349.25;5027106;28;57624;-72
2022/08/24 02:05:40;;;;;;;;;5.67;5.67;;;;;22.88;100.00;101351.91;5026577;28;46616;-74
2022/08/24 02:08:05;;;;;;;;;5.00;5.00;;;;;22.83;100.00;101345.75;5026467;28;60225;-73
2022/08/24 02:10:31;;;;;;;;;4.00;4.00;;;;;22.84;100.00;101347.50;5029192;28;45972;-72
2022/08/24 02:12:57;;;;;;;;;5.00;5.00;;;;;22.79;100.00;101341.38;5030101;28;45476;-75
2022/08/24 02:15:30;;;;;;;;;5.33;5.33;;;;;22.80;100.00;101348.53;5024367;28;47106;-72
2022/08/24 02:17:55;;;;;;;;;5.00;5.00;;;;;22.78;100.00;101345.03;5030431;28;45575;-72
2022/08/24 02:20:21;;;;;;;;;4.33;4.33;;;;;22.71;100.00;101342.53;5032167;28;45514;-72
2022/08/24 02:22:48;;;;;;;;;6.33;5.33;;;;;22.70;100.00;101346.16;5033820;28;45314;-72
2022/08/24 02:25:14;;;;;;;;;6.00;6.00;;;;;22.71;100.00;101344.34;5035095;28;47287;-72
2022/08/24 02:27:39;;;;;;;;;5.00;5.00;;;;;22.69;100.00;101355.16;5029157;28;45485;-71
2022/08/24 02:30:05;;;;;;;;;6.00;4.67;;;;;22.68;100.00;101348.00;5031924;28;58326;-72
2022/08/24 02:32:31;;;;;;;;;4.67;4.67;;;;;22.67;100.00;101350.72;5035281;28;45469;-73
2022/08/24 02:34:56;;;;;;;;;7.00;4.33;;;;;22.61;100.00;101345.53;5029840;28;70643;-72
2022/08/24 02:37:21;;;;;;;;;8.00;4.33;;;;;22.63;100.00;101357.13;5033740;28;63825;-72
2022/08/24 02:39:46;;;;;;;;;5.33;5.33;;;;;22.61;100.00;101345.53;5033542;28;58662;-72
2022/08/24 02:42:12;;;;;;;;;6.00;4.00;;;;;22.58;100.00;101345.63;5027843;28;45407;-72
2022/08/24 02:44:38;;;;;;;;;4.33;4.33;;;;;22.60;100.00;101350.06;5031461;28;47239;-72
2022/08/24 02:47:03;;;;;;;;;6.00;5.00;;;;;22.59;100.00;101350.97;5030299;28;58866;-74
2022/08/24 02:49:29;;;;;;;;;5.67;4.67;;;;;22.58;100.00;101356.38;5030046;28;45649;-72
2022/08/24 02:51:54;;;;;;;;;7.00;7.00;;;;;22.54;100.00;101352.94;5032462;28;45359;-72
2022/08/24 02:54:20;;;;;;;;;5.00;5.00;;;;;22.53;100.00;101351.19;5033710;28;46356;-73
2022/08/24 02:56:45;;;;;;;;;4.00;4.00;;;;;22.49;100.00;101354.88;5028364;28;45370;-72
2022/08/24 02:59:11;;;;;;;;;4.33;4.33;;;;;22.51;100.00;101357.50;5031120;28;45356;-72
2022/08/24 03:01:36;;;;;;;;;5.00;5.00;;;;;22.45;100.00;101356.78;5031641;28;45305;-73
2022/08/24 03:04:02;;;;;;;;;4.00;4.00;;;;;22.48;100.00;101351.31;5029092;28;47638;-73
2022/08/24 03:06:27;;;;;;;;;6.33;5.00;;;;;22.46;100.00;101352.28;5031988;28;45390;-74
2022/08/24 03:08:53;;;;;;;;;4.33;4.33;;;;;22.44;100.00;101354.13;5035679;28;45394;-73
2022/08/24 03:11:18;;;;;;;;;5.33;5.33;;;;;22.43;100.00;101353.25;5028625;28;58650;-73
2022/08/24 03:13:43;;;;;;;;;3.67;3.67;;;;;22.41;100.00;101347.03;5030559;28;50982;-73
2022/08/24 03:16:09;;;;;;;;;5.00;5.00;;;;;22.39;100.00;101350.69;5032663;28;45993;-72
2022/08/24 03:18:35;;;;;;;;;8.00;4.67;;;;;22.38;100.00;101343.56;5026521;28;58173;-72
2022/08/24 03:21:02;;;;;;;;;5.00;3.67;;;;;22.36;100.00;101357.03;5033355;28;45568;-72
2022/08/24 03:23:27;;;;;;;;;3.67;3.67;;;;;22.31;100.00;101339.25;5027226;28;47772;-75
2022/08/24 03:25:53;;;;;;;;;4.33;4.33;;;;;22.32;100.00;101341.03;5032315;28;45500;-72
2022/08/24 03:28:20;;;;;;;;;6.33;5.00;;;;;22.29;100.00;101342.00;5026326;28;45662;-72
2022/08/24 03:30:46;;;;;;;;;6.33;5.67;;;;;22.28;100.00;101342.94;5032272;28;45501;-73
2022/08/24 03:33:12;;;;;;;;;4.00;4.00;;;;;22.27;100.00;101335.81;5031219;28;46374;-72
2022/08/24 03:35:38;;;;;;;;;6.00;4.00;;;;;22.21;100.00;101342.25;5026356;28;58834;-73
2022/08/24 03:38:04;;;;;;;;;5.67;4.33;;;;;22.22;100.00;101348.50;5020913;28;45489;-73
2022/08/24 03:40:32;;;;;;;;;7.33;6.00;;;;;22.20;100.00;101351.22;5029903;28;45569;-74
2022/08/24 03:42:58;;;;;;;;;6.00;5.00;;;;;22.18;100.00;101341.44;5017243;28;46432;-73
2022/08/24 03:45:24;;;;;;;;;7.00;5.00;;;;;22.13;100.00;101343.38;5031709;28;45346;-71
2022/08/24 03:47:49;;;;;;;;;5.00;5.00;;;;;22.14;100.00;101340.63;5030377;28;45312;-73
2022/08/24 03:50:15;;;;;;;;;4.67;4.67;;;;;22.10;100.00;101343.41;5027831;28;64349;-72
2022/08/24 03:52:40;;;;;;;;;6.00;4.00;;;;;22.07;100.00;101341.72;5031418;28;45457;-72
2022/08/24 03:55:07;;;;;;;;;7.00;5.33;;;;;22.05;100.00;101330.13;5028459;28;68047;-72
2022/08/24 03:57:33;;;;;;;;;5.00;5.00;;;;;22.04;100.00;101330.16;5035167;28;46679;-73
2022/08/24 03:59:59;;;;;;;;;5.00;5.00;;;;;22.01;100.00;101327.56;5032003;28;45756;-73
2022/08/24 04:02:25;;;;;;;;;6.00;6.00;;;;;21.98;100.00;101323.16;5029943;28;45415;-75
2022/08/24 04:04:50;;;;;;;;;4.67;4.67;;;;;22.04;100.00;101332.84;5028670;28;45358;-73
2022/08/24 04:07:16;;;;;;;;;4.00;4.00;;;;;21.98;100.00;101332.09;5022197;28;46739;-73
2022/08/24 04:09:41;;;;;;;;;7.33;5.00;;;;;22.00;100.00;101339.22;5028611;28;54037;-74
2022/08/24 04:12:07;;;;;;;;;5.67;5.67;;;;;21.99;100.00;101341.03;5015450;28;45890;-75
2022/08/24 04:14:33;;;;;;;;;4.00;4.00;;;;;21.97;100.00;101337.53;5034378;28;45477;-72
2022/08/24 04:16:58;;;;;;;;;4.00;4.00;;;;;21.96;100.00;101338.47;5035604;28;45516;-73
2022/08/24 04:19:25;;;;;;;;;5.00;5.00;;;;;21.89;100.00;101331.47;5024251;28;45570;-72
2022/08/24 04:21:50;;;;;;;;;5.33;5.33;;;;;21.91;100.00;101332.31;5030563;28;46347;-74
2022/08/24 04:24:15;;;;;;;;;7.33;5.67;;;;;21.90;100.00;101327.88;5026989;28;45358;-75
2022/08/24 04:26:41;;;;;;;;;4.67;4.67;;;;;21.94;100.00;101337.59;5036094;28;45340;-73
2022/08/24 04:29:08;;;;;;;;;7.00;5.00;;;;;21.93;100.00;101342.09;5028990;28;45362;-72
2022/08/24 04:31:38;;;;;;;;;8.33;6.00;;;;;21.93;100.00;101335.84;5016927;28;46478;-72
2022/08/24 04:34:04;;;;;;;;;6.00;6.00;;;;;21.90;100.00;101335.94;5024574;28;45240;-72
2022/08/24 04:36:31;;;;;;;;;4.00;4.00;;;;;21.84;100.00;101326.25;5030452;28;45371;-72
2022/08/24 04:38:56;;;;;;;;;5.00;5.00;;;;;21.89;100.00;101332.38;5025148;28;45616;-72
2022/08/24 04:41:22;;;;;;;;;5.67;5.33;;;;;21.88;100.00;101330.59;5022920;28;56754;-72
2022/08/24 04:43:48;;;;;;;;;3.00;3.00;;;;;21.85;100.00;101324.44;5025696;28;64344;-72
2022/08/24 04:46:15;;;;;;;;;6.33;6.33;;;;;21.83;100.00;101321.75;5023800;28;45413;-72
2022/08/24 04:48:43;;;;;;;;;5.00;5.00;;;;;21.82;100.00;101325.38;5029540;28;45367;-73
2022/08/24 04:51:10;;;;;;;;;5.00;5.00;;;;;21.82;100.00;101328.06;5020167;28;46568;-72
2022/08/24 04:53:35;;;;;;;;;4.67;4.67;;;;;21.81;100.00;101320.94;5026332;28;45467;-72
2022/08/24 04:56:01;;;;;;;;;6.00;5.00;;;;;21.83;100.00;101332.50;5033724;28;45288;-72
2022/08/24 04:58:28;;;;;;;;;5.00;5.00;;;;;21.81;100.00;101331.69;5029666;28;45421;-74
2022/08/24 05:00:53;;;;;;;;;5.00;5.00;;;;;21.79;100.00;101327.28;5032561;28;45410;-72
2022/08/24 05:03:20;;;;;;;;;5.33;5.00;;;;;21.82;100.00;101332.56;5032235;28;45445;-75
2022/08/24 05:05:48;;;;;;;;;4.33;4.33;;;;;21.80;100.00;101329.06;5028509;28;45496;-72
2022/08/24 05:08:13;;;;;;;;;6.67;5.67;;;;;21.73;100.00;101328.31;5026953;28;45496;-72
2022/08/24 05:10:43;;;;;;;;;9.33;6.00;;;;;21.78;100.00;101342.50;5030421;28;46332;-73
2022/08/24 05:13:09;;;;;;;;;8.67;7.00;;;;;21.79;100.00;101343.44;5028165;28;45464;-75
2022/08/24 05:15:40;;;;;;;;;6.00;6.00;;;;;21.73;100.00;101333.69;5030741;28;45375;-72
2022/08/24 05:18:06;;;;;;;;;6.33;6.00;;;;;21.75;100.00;101339.03;5030961;28;45503;-75
2022/08/24 05:20:32;;;;;;;;;5.00;5.00;;;;;21.78;100.00;101347.00;5022842;28;45629;-73
2022/08/24 05:22:57;;;;;;;;;6.00;5.00;;;;;21.78;100.00;101347.00;5027843;28;45509;-73
2022/08/24 05:25:22;;;;;;;;;6.00;5.00;;;;;21.78;100.00;101347.00;5026507;28;58261;-72
2022/08/24 05:27:48;;;;;;;;;6.33;6.33;;;;;21.75;100.00;101337.25;5030761;28;45568;-72
2022/08/24 05:30:15;;;;;;;;;8.67;7.00;;;;;21.79;100.00;101340.75;5026513;28;46858;-75
2022/08/24 05:32:40;;;;;;;;;6.00;6.00;;;;;21.77;100.00;101334.50;5023403;28;45473;-72
2022/08/24 05:35:06;;;;;;;;;5.00;5.00;;;;;21.79;100.00;101338.03;5025256;28;53190;-72
2022/08/24 05:37:37;;;;;;;;;8.33;6.00;;;;;21.83;100.00;101345.06;5021496;28;45339;-72
2022/08/24 05:40:07;;;;;;;;;8.00;7.00;;;;;21.81;100.00;101342.44;5019910;28;46465;-72
2022/08/24 05:42:33;;;;;;;;;5.00;5.00;;;;;21.86;100.00;101351.28;5021149;28;45369;-72
2022/08/24 05:44:58;;;;;;;;;7.00;7.00;;;;;21.87;100.00;101344.06;5030035;28;45372;-73
2022/08/24 05:47:24;;;;;;;;;6.00;5.00;;;;;21.90;100.00;101342.19;5022372;28;45650;-72
2022/08/24 05:49:51;;;;;;;;;7.00;6.00;;;;;21.89;100.00;101342.22;5015627;28;46870;-73
2022/08/24 05:52:17;;;;;;;;;7.33;6.00;;;;;21.95;100.00;101352.84;5031959;28;46001;-74
2022/08/24 05:54:43;;;;;;;;;4.00;4.00;;;;;21.97;100.00;101349.16;5037822;28;46042;-72
2022/08/24 05:57:08;;;;;;;;;7.33;7.00;;;;;22.01;100.00;101349.09;5020190;28;45672;-72
2022/08/24 05:59:34;;;;;;;;;5.00;5.00;;;;;22.01;100.00;101344.59;5028615;28;68648;-72
2022/08/24 06:01:59;;;;;;;;;6.00;6.00;;;;;22.06;100.00;101355.22;5024728;28;45520;-72
2022/08/24 06:04:25;;;;;;;;;9.00;7.33;;;;;22.09;100.00;101347.03;5025444;28;45378;-72
2022/08/24 06:06:51;;;;;;;;;9.33;6.33;;;;;22.11;100.00;101356.88;5030175;28;45576;-73
2022/08/24 06:09:16;;;;;;;;;5.67;5.67;;;;;22.11;100.00;101351.50;5033578;28;46482;-73
2022/08/24 06:11:41;;;;;;;;;11.00;7.00;;;;;22.13;100.00;101349.66;5033601;28;45526;-72
2022/08/24 06:14:12;;;;;;;;;6.00;5.33;;;;;22.16;100.00;101348.69;5034467;28;45492;-75
2022/08/24 06:16:40;;;;;;;;;5.33;5.33;;;;;22.23;100.00;101353.84;5029008;28;45398;-72
2022/08/24 06:19:07;;;;;;;;;7.67;6.00;;;;;22.25;100.00;101353.78;5026791;28;45686;-73
2022/08/24 06:21:32;;;;;;;;;5.33;5.33;;;;;22.31;100.00;101358.09;5015931;28;45493;-75
2022/08/24 06:23:58;;;;;;;;;6.00;4.00;;;;;22.30;100.00;101351.84;5031957;28;46997;-73
2022/08/24 06:29:08;;;;;;;;;7.00;6.33;;;;;22.41;100.00;101354.22;5018706;28;45461;-71
2022/08/24 06:31:39;;;;;;;;;8.00;7.00;;;;;22.45;100.00;101363.97;5013806;28;45498;-73
2022/08/24 06:34:05;;;;;;;;;8.33;5.33;;;;;22.48;100.00;101361.19;5028014;28;45481;-72
2022/08/24 06:36:31;;;;;;;;;5.67;5.67;;;;;22.53;100.00;101369.09;5025252;28;47073;-72
2022/08/24 06:38:56;;;;;;;;;8.00;6.67;;;;;22.55;100.00;101365.47;5027556;28;48650;-71
2022/08/24 06:41:22;;;;;;;;;7.00;5.67;;;;;22.60;100.00;101360.81;5025221;28;45439;-71
2022/08/24 06:43:47;;;;;;;;;7.67;6.33;;;;;22.63;100.00;101359.81;5024559;28;46545;-72
2022/08/24 06:46:13;;;;;;;;;8.33;7.00;;;;;22.64;100.00;101351.72;5020412;28;45486;-72
2022/08/24 06:48:39;;;;;;;;;7.00;7.00;;;;;22.68;100.00;101358.75;5022095;28;64297;-72
2022/08/24 06:51:11;;;;;;;;;9.33;7.67;;;;;22.75;100.00;101356.78;5021485;28;48802;-71
2022/08/24 06:53:37;;;;;;;;;9.67;9.00;;;;;22.79;100.00;101354.84;5020247;28;45470;-73
2022/08/24 06:56:03;;;;;;;;;6.33;6.33;;;;;22.80;100.00;101352.13;5029299;28;45626;-73
2022/08/24 06:58:28;;;;;;;;;9.33;7.67;;;;;22.88;100.00;101354.59;5025663;28;46551;-72
2022/08/24 07:00:55;;;;;;;;;11.33;9.00;;;;;22.90;100.00;101359.00;5022915;28;45543;-73
2022/08/24 07:03:22;;;;;;;;;10.00;7.33;;;;;22.92;100.00;101345.50;5025583;28;45531;-73
2022/08/24 07:05:56;;;;;;;;;12.00;9.00;;;;;22.95;100.00;101350.78;5023205;28;45491;-72
2022/08/24 07:08:22;;;;;;;;;16.67;12.00;;;;;23.00;100.00;101347.00;5019572;28;47382;-72
2022/08/24 07:10:47;;;;;;;;;13.00;9.33;;;;;23.07;100.00;101354.91;5021756;28;45758;-71
2022/08/24 07:13:13;;;;;;;;;13.00;9.00;;;;;23.05;100.00;101340.59;5019167;28;45694;-71
2022/08/24 07:15:42;;;;;;;;;10.00;7.00;;;;;23.15;100.00;101352.84;5025740;28;45466;-75
2022/08/24 07:18:11;;;;;;;;;8.33;8.33;;;;;23.19;100.00;101352.69;5021387;28;46537;-71
2022/08/24 07:20:36;;;;;;;;;14.67;8.67;;;;;23.24;100.00;101352.53;5022380;28;46139;-73
2022/08/24 07:23:03;;;;;;;;;7.67;7.67;;;;;23.23;100.00;101342.69;5023982;28;45377;-74
2022/08/24 07:25:29;;;;;;;;;10.00;9.00;;;;;23.30;100.00;101359.53;5009998;28;45735;-73
2022/08/24 07:27:55;;;;;;;;;22.33;15.00;;;;;23.32;100.00;101350.44;5162019;22;45646;-72
2022/08/24 07:30:20;;;;;;;;;24.67;11.33;;;;;23.37;100.00;101353.88;5032185;28;66963;-73
2022/08/24 07:32:45;;;;;;;;;17.33;10.67;;;;;23.41;100.00;101352.84;5031706;28;45455;-73
2022/08/24 07:35:11;;;;;;;;;8.00;8.00;;;;;23.42;100.00;101357.28;5035263;28;55112;-74
2022/08/24 07:37:36;;;;;;;;;8.67;8.00;;;;;23.49;100.00;101366.06;5032836;28;62035;-74
2022/08/24 07:40:03;;;;;;;;;6.00;6.00;;;;;23.52;100.00;101360.56;5035304;28;69664;-72
2022/08/24 07:42:28;;;;;;;;;7.00;7.00;;;;;23.55;100.00;101357.78;5036164;28;45455;-72
2022/08/24 07:44:53;;;;;;;;;7.00;7.00;;;;;23.59;100.00;101362.09;5036126;28;45471;-73
2022/08/24 07:47:19;;;;;;;;;6.00;6.00;;;;;23.60;100.00;101363.88;5034184;28;45638;-71
2022/08/24 07:49:45;;;;;;;;;8.33;7.00;;;;;23.64;100.00;101364.69;5033930;28;45656;-71
2022/08/24 07:52:10;;;;;;;;;12.33;9.67;;;;;23.69;100.00;101360.88;5035807;28;47036;-73
2022/08/24 07:54:36;;;;;;;;;8.33;7.00;;;;;23.73;100.00;101362.53;5025652;28;46857;-71
2022/08/24 07:57:05;;;;;;;;;10.00;7.67;;;;;23.81;100.00;101377.56;5029259;28;45640;-73
2022/08/24 07:59:30;;;;;;;;;8.00;8.00;;;;;23.81;100.00;101370.38;5015705;28;45480;-71
2022/08/24 08:01:57;;;;;;;;;8.00;6.33;;;;;23.90;100.00;101378.13;5019260;28;45611;-72
2022/08/24 08:04:23;;;;;;;;;8.00;7.00;;;;;23.93;100.00;101366.38;5033400;28;45603;-72
2022/08/24 08:06:49;;;;;;;;;7.33;7.33;;;;;23.97;100.00;101371.59;5035248;28;45719;-71
2022/08/24 08:09:15;;;;;;;;;11.67;6.33;;;;;24.05;100.00;101374.88;5034902;28;45369;-72
2022/08/24 08:11:40;;;;;;;;;8.67;7.67;;;;;24.12;100.00;101380.03;5035652;28;57243;-71
2022/08/24 08:14:05;;;;;;;;;7.67;6.33;;;;;24.18;100.00;101382.50;5035018;28;45329;-72
2022/08/24 08:16:31;;;;;;;;;5.67;5.67;;;;;24.19;100.00;101382.47;5035080;28;46384;-72
2022/08/24 08:18:56;;;;;;;;;10.00;8.00;;;;;24.29;100.00;101375.81;5034650;28;64325;-72
2022/08/24 08:24:15;;;;;;;;;8.33;6.33;;;;;24.45;100.00;101384.25;5021179;28;45551;-72
2022/08/24 08:26:41;;;;;;;;;7.00;7.00;;;;;24.54;100.00;101383.00;5031705;28;45931;-72
2022/08/24 08:29:09;;;;;;;;;9.67;8.33;;;;;24.65;100.00;101387.97;5034403;28;45413;-72
2022/08/24 08:31:35;;;;;;;;;9.00;7.33;;;;;24.69;100.00;101382.41;5035611;28;45288;-72
2022/08/24 08:34:00;;;;;;;;;9.00;8.00;;;;;24.75;100.00;101384.00;5017693;28;45600;-70
2022/08/24 08:36:25;;;;;;;;;48.67;35.00;;;;;24.80;100.00;101388.25;5030976;28;68528;-73
2022/08/24 08:38:51;;;;;;;;;10.00;8.00;;;;;24.78;100.00;101376.66;5034941;28;45543;-74
2022/08/24 08:41:16;;;;;;;;;6.67;6.00;;;;;24.83;100.00;101390.88;5034705;28;45365;-74
2022/08/24 08:43:59;;;;;;;;;16.00;11.33;;;;;24.79;100.00;101385.63;5036006;28;45309;-75
2022/08/24 08:46:54;;;;;;;;;13.67;8.33;;;;;24.79;100.00;101380.22;5032838;28;46714;-73
2022/08/24 08:49:52;;;;;;;;;10.00;8.33;;;;;24.81;100.00;101381.91;5031337;28;45473;-77
2022/08/24 08:52:57;;;;;;;;;7.00;7.00;;;;;24.82;100.00;101382.78;5032258;28;45472;-79
2022/08/24 08:55:26;;;;;;;;;11.67;8.00;;;;;24.83;100.00;101379.19;4989929;28;46419;-77
2022/08/24 08:57:59;;;;;;;;;11.00;9.33;;;;;24.84;100.00;101378.22;5032984;28;46504;-77
2022/08/24 09:00:38;;;;;;;;;8.00;8.00;;;;;24.81;100.00;101368.41;5017293;28;45430;-78
2022/08/24 09:03:03;;;;;;;;;9.00;7.00;;;;;24.89;100.00;101373.53;5049168;28;45565;-76
2022/08/24 09:05:44;;;;;;;;;10.00;8.67;;;;;24.91;100.00;101374.34;5034213;28;45543;-76
2022/08/24 09:08:48;;;;;;;;;13.00;9.33;;;;;24.92;100.00;101378.78;5032356;28;46730;-77
2022/08/24 09:11:34;;;;;;;;;12.67;9.67;;;;;24.95;100.00;101381.38;5032255;28;45294;-78
2022/08/24 09:14:41;;;;;;;;;8.00;6.33;;;;;25.00;100.00;101375.78;5032966;28;45357;-77
2022/08/24 09:17:24;;;;;;;;;11.00;7.33;;;;;25.08;100.00;101373.69;5033182;28;45548;-78
2022/08/24 09:20:17;;;;;;;;;14.33;8.33;;;;;25.14;100.00;101369.84;5034746;28;45689;-75
2022/08/24 09:22:46;;;;;;;;;8.67;5.33;;;;;25.16;100.00;101363.44;5034850;28;45411;-76
2022/08/24 09:25:19;;;;;;;;;6.67;6.00;;;;;25.23;100.00;101372.19;5025945;28;45500;-76
2022/08/24 09:28:28;;;;;;;;;5.67;5.67;;;;;25.31;100.00;101368.22;5037530;28;45144;-78
2022/08/24 09:31:30;;;;;;;;;7.33;5.00;;;;;25.39;100.00;101373.28;4978323;28;45636;-76
2022/08/24 09:34:16;;;;;;;;;4.00;4.00;;;;;25.47;100.00;101375.69;5037275;28;45489;-76
2022/08/24 09:36:53;;;;;;;;;6.67;5.67;;;;;25.53;100.00;101379.00;5030898;28;45570;-80
2022/08/24 09:39:37;;;;;;;;;4.67;3.67;;;;;25.60;100.00;101371.50;5034794;28;45432;-78
2022/08/24 09:42:24;;;;;;;;;4.00;4.00;;;;;25.67;100.00;101383.81;5036308;28;48015;-78
2022/08/24 09:45:11;;;;;;;;;9.00;6.00;;;;;25.74;100.00;101384.44;5034252;28;45522;-75
2022/08/24 09:47:51;;;;;;;;;6.33;5.00;;;;;25.79;100.00;101377.06;5037264;28;45361;-74
2022/08/24 09:50:40;;;;;;;;;7.00;2.33;;;;;25.88;100.00;101373.91;5037599;28;46779;-74
2022/08/24 09:53:26;;;;;;;;;3.67;2.33;;;;;25.97;100.00;101378.94;5004014;28;47130;-74
2022/08/24 09:56:30;;;;;;;;;1.67;1.67;;;;;26.04;100.00;101372.28;5034032;28;46603;-74
2022/08/24 09:58:56;;;;;;;;;3.33;3.00;;;;;26.11;100.00;101371.09;4993913;28;45656;-73
2022/08/24 10:01:38;;;;;;;;;2.67;2.00;;;;;26.21;100.00;101366.13;5036426;28;45609;-74
2022/08/24 10:04:07;;;;;;;;;2.00;2.00;;;;;26.30;100.00;101362.09;5018224;28;46173;-73
2022/08/24 10:07:09;;;;;;;;;2.00;2.00;;;;;26.36;100.00;101369.94;5018757;28;45467;-74
2022/08/24 10:09:50;;;;;;;;;3.00;3.00;;;;;26.45;100.00;101357.84;5036635;28;45534;-74
2022/08/24 10:12:31;;;;;;;;;2.00;2.00;;;;;26.51;100.00;101357.56;5037814;28;46217;-75
2022/08/24 10:15:39;;;;;;;;;4.33;2.00;;;;;26.55;100.00;101354.63;5037005;28;46728;-73
2022/08/24 10:18:11;;;;;;;;;3.33;2.33;;;;;26.58;100.00;101357.22;5013502;28;45507;-73
2022/08/24 10:21:03;;;;;;;;;2.00;2.00;;;;;26.64;100.00;101348.78;5035925;28;45538;-74
2022/08/24 10:23:43;;;;;;;;;2.67;1.00;;;;;26.70;100.00;101353.03;5036832;28;45444;-74
2022/08/24 10:26:21;;;;;;;;;2.00;2.00;;;;;26.76;99.43;101341.91;5035750;28;46373;-75
2022/08/24 10:29:06;;;;;;;;;1.00;1.00;;;;;26.82;97.21;101341.59;5035123;28;45437;-73
2022/08/24 10:31:37;;;;;;;;;3.00;2.00;;;;;26.91;96.63;101332.16;5017793;28;45556;-74
2022/08/24 10:34:29;;;;;;;;;3.00;2.00;;;;;26.97;94.82;101331.84;5035776;28;45324;-75
2022/08/24 10:37:13;;;;;;;;;4.00;2.00;;;;;27.08;92.83;101334.94;5036660;28;45602;-74
2022/08/24 10:39:44;;;;;;;;;2.00;2.00;;;;;27.11;94.04;101323.94;5037550;28;45913;-74
2022/08/24 10:45:52;;;;;;;;;2.67;1.00;;;;;27.26;91.89;101326.81;5031975;28;45532;-74
2022/08/24 10:48:35;;;;;;;;;3.00;3.00;;;;;27.32;92.40;101329.22;4976004;28;45819;-74
2022/08/24 10:51:25;;;;;;;;;2.67;1.00;;;;;27.36;92.49;101328.09;5015906;28;46030;-73
2022/08/24 10:53:52;;;;;;;;;1.00;1.00;;;;;27.40;88.96;101330.59;5036766;28;45597;-74
2022/08/24 10:56:39;;;;;;;;;4.00;2.00;;;;;27.49;89.97;101326.53;5037070;28;45535;-73
2022/08/24 10:59:24;;;;;;;;;2.00;2.00;;;;;27.58;87.85;101326.03;5035206;28;46184;-73
2022/08/24 11:01:58;;;;;;;;;1.33;1.33;;;;;27.60;85.91;101326.84;5047373;28;45518;-73
2022/08/24 11:04:30;;;;;;;;;2.00;2.00;;;;;27.60;85.53;101318.72;5024926;28;45505;-72
2022/08/24 11:07:13;;;;;;;;;3.00;2.00;;;;;27.62;86.25;101315.91;5037037;28;45591;-72
2022/08/24 11:09:59;;;;;;;;;2.33;2.33;;;;;27.71;85.30;101320.00;5035504;28;46303;-72
2022/08/24 11:12:41;;;;;;;;;2.00;2.00;;;;;27.79;86.46;101317.75;5030483;28;45184;-73
2022/08/24 11:15:22;;;;;;;;;2.67;2.33;;;;;27.84;86.31;101307.53;5032211;28;45466;-73
2022/08/24 11:17:59;;;;;;;;;3.00;3.00;;;;;27.87;85.30;101301.94;5036361;28;45436;-73
2022/08/24 11:20:43;;;;;;;;;11.00;3.33;;;;;27.99;86.13;101304.00;5036579;28;47331;-73
2022/08/24 11:23:20;;;;;;;;;4.00;2.33;;;;;28.10;84.17;101308.84;5036417;28;45535;-72
2022/08/24 11:25:56;;;;;;;;;1.67;1.00;;;;;28.26;82.04;101301.59;5037161;28;45311;-72
2022/08/24 11:28:35;;;;;;;;;1.67;1.67;;;;;28.37;83.53;101301.03;5037436;28;45501;-72
2022/08/24 11:31:02;;;;;;;;;1.67;1.67;;;;;28.52;82.69;101296.59;5036395;28;46512;-73
2022/08/24 11:33:32;;;;;;;;;0.67;0.33;;;;;28.60;81.96;101287.03;5041677;28;45554;-73
2022/08/24 11:35:59;;;;;;;;;0.33;0.33;;;;;28.70;81.56;101295.53;5048078;28;45861;-73
2022/08/24 11:38:30;;;;;;;;;14.33;5.67;;;;;28.70;82.72;101269.22;5025367;28;45478;-73
2022/08/24 11:41:04;;;;;;;;;17.67;7.00;;;;;28.91;81.48;101290.69;5035456;28;46455;-74
2022/08/24 11:43:57;;;;;;;;;0.33;0.33;;;;;28.98;81.03;101281.25;5034538;28;45503;-72